sensor_id;sensor_type;location;lat;lon;timestamp;pressure;altitude;pressure_sealevel;temperature;humidity
21433;BME280;18592;49.708;10.900;2023-05-07T00:01:33;98648.97;;;18.06;45.22
21433;BME280;18592;49.708;10.900;2023-05-07T00:03:35;98648.16;;;18.06;44.93
21433;BME280;18592;49.708;10.900;2023-05-07T00:05:38;98644.84;;;18.04;45.17
21433;BME280;18592;49.708;10.900;2023-05-07T00:07:40;98647.91;;;18.02;45.18
21433;BME280;18592;49.708;10.900;2023-05-07T00:09:42;98643.50;;;18.01;45.30
21433;BME280;18592;49.708;10.900;2023-05-07T00:11:43;98651.25;;;17.99;45.34
21433;BME280;18592;49.708;10.900;2023-05-07T00:13:45;98651.56;;;17.98;45.36
21433;BME280;18592;49.708;10.900;2023-05-07T00:15:47;98655.44;;;17.97;45.24
21433;BME280;18592;49.708;10.900;2023-05-07T00:17:48;98655.44;;;17.97;45.29
21433;BME280;18592;49.708;10.900;2023-05-07T00:19:50;98658.50;;;17.95;45.35
21433;BME280;18592;49.708;10.900;2023-05-07T00:21:51;98655.22;;;17.93;45.35
21433;BME280;18592;49.708;10.900;2023-05-07T00:23:55;98662.38;;;17.94;45.33
21433;BME280;18592;49.708;10.900;2023-05-07T00:25:56;98667.88;;;17.94;45.40
21433;BME280;18592;49.708;10.900;2023-05-07T00:27:58;98656.34;;;17.92;45.45
21433;BME280;18592;49.708;10.900;2023-05-07T00:30:05;98659.09;;;17.92;45.47
21433;BME280;18592;49.708;10.900;2023-05-07T00:32:08;98665.72;;;17.91;45.45
21433;BME280;18592;49.708;10.900;2023-05-07T00:34:10;98656.63;;;17.91;45.47
21433;BME280;18592;49.708;10.900;2023-05-07T00:36:11;98657.75;;;17.90;45.42
21433;BME280;18592;49.708;10.900;2023-05-07T00:38:13;98658.84;;;17.89;45.60
21433;BME280;18592;49.708;10.900;2023-05-07T00:40:15;98656.41;;;17.87;45.60
21433;BME280;18592;49.708;10.900;2023-05-07T00:42:16;98651.72;;;17.88;45.65
21433;BME280;18592;49.708;10.900;2023-05-07T00:44:18;98646.19;;;17.88;45.59
21433;BME280;18592;49.708;10.900;2023-05-07T00:46:20;98655.56;;;17.87;45.57
21433;BME280;18592;49.708;10.900;2023-05-07T00:48:22;98650.88;;;17.87;45.31
21433;BME280;18592;49.708;10.900;2023-05-07T00:50:28;98650.38;;;17.85;45.56
21433;BME280;18592;49.708;10.900;2023-05-07T00:52:31;98648.72;;;17.84;45.70
21433;BME280;18592;49.708;10.900;2023-05-07T00:54:33;98646.25;;;17.83;45.73
21433;BME280;18592;49.708;10.900;2023-05-07T00:56:36;98644.59;;;17.82;45.63
21433;BME280;18592;49.708;10.900;2023-05-07T00:58:37;98633.06;;;17.80;45.75
21433;BME280;18592;49.708;10.900;2023-05-07T01:00:39;98647.69;;;17.80;45.67
21433;BME280;18592;49.708;10.900;2023-05-07T01:02:41;98648.78;;;17.79;45.66
21433;BME280;18592;49.708;10.900;2023-05-07T01:04:44;98645.19;;;17.78;45.87
21433;BME280;18592;49.708;10.900;2023-05-07T01:06:46;98645.81;;;17.75;45.92
21433;BME280;18592;49.708;10.900;2023-05-07T01:08:48;98644.97;;;17.75;45.83
21433;BME280;18592;49.708;10.900;2023-05-07T01:10:52;98644.97;;;17.75;45.78
21433;BME280;18592;49.708;10.900;2023-05-07T01:12:55;98646.09;;;17.74;45.82
21433;BME280;18592;49.708;10.900;2023-05-07T01:14:58;98645.25;;;17.73;45.87
21433;BME280;18592;49.708;10.900;2023-05-07T01:17:00;98635.38;;;17.72;45.78
21433;BME280;18592;49.708;10.900;2023-05-07T01:19:02;98649.16;;;17.72;45.74
21433;BME280;18592;49.708;10.900;2023-05-07T01:21:05;98646.66;;;17.71;45.76
21433;BME280;18592;49.708;10.900;2023-05-07T01:23:10;98642.81;;;17.72;45.80
21433;BME280;18592;49.708;10.900;2023-05-07T01:25:12;98636.25;;;17.68;45.92
21433;BME280;18592;49.708;10.900;2023-05-07T01:27:19;98638.69;;;17.69;45.92
21433;BME280;18592;49.708;10.900;2023-05-07T01:29:23;98638.47;;;17.66;46.21
21433;BME280;18592;49.708;10.900;2023-05-07T01:31:25;98640.13;;;17.67;46.00
21433;BME280;18592;49.708;10.900;2023-05-07T01:33:29;98640.13;;;17.67;46.05
21433;BME280;18592;49.708;10.900;2023-05-07T01:35:40;98639.88;;;17.63;46.30
21433;BME280;18592;49.708;10.900;2023-05-07T01:37:42;98630.50;;;17.64;46.07
21433;BME280;18592;49.708;10.900;2023-05-07T01:39:43;98634.09;;;17.65;46.20
21433;BME280;18592;49.708;10.900;2023-05-07T01:41:48;98634.34;;;17.63;46.18
21433;BME280;18592;49.708;10.900;2023-05-07T01:43:51;98629.66;;;17.64;46.25
21433;BME280;18592;49.708;10.900;2023-05-07T01:45:53;98625.28;;;17.63;46.27
21433;BME280;18592;49.708;10.900;2023-05-07T01:47:56;98626.41;;;17.62;46.15
21433;BME280;18592;49.708;10.900;2023-05-07T01:49:59;98631.09;;;17.61;46.30
21433;BME280;18592;49.708;10.900;2023-05-07T01:52:01;98619.22;;;17.61;46.26
21433;BME280;18592;49.708;10.900;2023-05-07T01:54:03;98632.22;;;17.60;46.31
21433;BME280;18592;49.708;10.900;2023-05-07T01:56:05;98624.75;;;17.61;46.35
21433;BME280;18592;49.708;10.900;2023-05-07T01:58:12;98628.91;;;17.58;46.37
21433;BME280;18592;49.708;10.900;2023-05-07T02:00:17;98630.56;;;17.59;46.35
21433;BME280;18592;49.708;10.900;2023-05-07T02:02:19;98635.56;;;17.57;46.44
21433;BME280;18592;49.708;10.900;2023-05-07T02:04:21;98630.03;;;17.57;46.49
21433;BME280;18592;49.708;10.900;2023-05-07T02:06:24;98633.91;;;17.56;46.56
21433;BME280;18592;49.708;10.900;2023-05-07T02:08:30;98627.56;;;17.56;46.53
21433;BME280;18592;49.708;10.900;2023-05-07T02:10:32;98631.44;;;17.55;46.46
21433;BME280;18592;49.708;10.900;2023-05-07T02:12:34;98627.03;;;17.54;46.76
21433;BME280;18592;49.708;10.900;2023-05-07T02:14:36;98627.03;;;17.54;46.59
21433;BME280;18592;49.708;10.900;2023-05-07T02:16:37;98629.81;;;17.54;46.61
21433;BME280;18592;49.708;10.900;2023-05-07T02:18:40;98625.41;;;17.53;46.48
21433;BME280;18592;49.708;10.900;2023-05-07T02:20:41;98624.59;;;17.52;46.50
21433;BME280;18592;49.708;10.900;2023-05-07T02:22:43;98625.66;;;17.51;46.53
21433;BME280;18592;49.708;10.900;2023-05-07T02:24:44;98624.03;;;17.50;46.57
21433;BME280;18592;49.708;10.900;2023-05-07T02:26:46;98622.38;;;17.49;46.59
21433;BME280;18592;49.708;10.900;2023-05-07T02:28:47;98621.56;;;17.49;46.66
21433;BME280;18592;49.708;10.900;2023-05-07T02:30:49;98620.72;;;17.48;46.77
21433;BME280;18592;49.708;10.900;2023-05-07T02:32:51;98622.97;;;17.46;46.76
21433;BME280;18592;49.708;10.900;2023-05-07T02:34:53;98626.56;;;17.47;46.75
21433;BME280;18592;49.708;10.900;2023-05-07T02:36:55;98626.56;;;17.47;46.77
21433;BME280;18592;49.708;10.900;2023-05-07T02:38:59;98624.38;;;17.44;46.73
21433;BME280;18592;49.708;10.900;2023-05-07T02:41:02;98617.53;;;17.41;46.79
21433;BME280;18592;49.708;10.900;2023-05-07T02:43:04;98619.44;;;17.41;47.04
21433;BME280;18592;49.708;10.900;2023-05-07T02:45:06;98628.84;;;17.40;46.97
21433;BME280;18592;49.708;10.900;2023-05-07T02:47:09;98619.22;;;17.37;46.97
21433;BME280;18592;49.708;10.900;2023-05-07T02:49:12;98620.06;;;17.38;46.91
21433;BME280;18592;49.708;10.900;2023-05-07T02:51:13;98625.03;;;17.36;46.92
21433;BME280;18592;49.708;10.900;2023-05-07T02:53:16;98619.50;;;17.36;46.80
21433;BME280;18592;49.708;10.900;2023-05-07T02:55:18;98626.16;;;17.35;46.91
21433;BME280;18592;49.708;10.900;2023-05-07T02:57:22;98626.16;;;17.35;46.78
21433;BME280;18592;49.708;10.900;2023-05-07T02:59:24;98623.97;;;17.32;46.88
21433;BME280;18592;49.708;10.900;2023-05-07T03:01:27;98619.28;;;17.32;46.93
21433;BME280;18592;49.708;10.900;2023-05-07T03:03:35;98619.88;;;17.29;47.05
21433;BME280;18592;49.708;10.900;2023-05-07T03:06:02;98616.06;;;17.25;47.26
21433;BME280;18592;49.708;10.900;2023-05-07T03:08:06;98615.78;;;17.27;47.03
21433;BME280;18592;49.708;10.900;2023-05-07T03:10:08;98621.84;;;17.24;47.06
21433;BME280;18592;49.708;10.900;2023-05-07T03:12:10;98611.13;;;17.22;47.15
21433;BME280;18592;49.708;10.900;2023-05-07T03:14:11;98614.72;;;17.23;47.20
21433;BME280;18592;49.708;10.900;2023-05-07T03:16:13;98611.41;;;17.21;47.54
21433;BME280;18592;49.708;10.900;2023-05-07T03:18:15;98612.25;;;17.21;47.22
21433;BME280;18592;49.708;10.900;2023-05-07T03:20:16;98619.16;;;17.19;47.19
21433;BME280;18592;49.708;10.900;2023-05-07T03:22:18;98609.28;;;17.18;47.22
21433;BME280;18592;49.708;10.900;2023-05-07T03:24:20;98608.44;;;17.17;47.22
21433;BME280;18592;49.708;10.900;2023-05-07T03:26:22;98615.63;;;17.13;47.25
21433;BME280;18592;49.708;10.900;2023-05-07T03:28:26;98611.00;;;17.08;47.39
21433;BME280;18592;49.708;10.900;2023-05-07T03:30:33;98622.03;;;17.08;47.28
21433;BME280;18592;49.708;10.900;2023-05-07T03:32:34;98622.03;;;17.08;47.25
21433;BME280;18592;49.708;10.900;2023-05-07T03:34:41;98617.91;;;17.06;47.23
21433;BME280;18592;49.708;10.900;2023-05-07T03:36:49;98623.72;;;17.04;47.38
21433;BME280;18592;49.708;10.900;2023-05-07T03:38:51;98618.50;;;17.03;47.29
21433;BME280;18592;49.708;10.900;2023-05-07T03:41:00;98624.31;;;17.01;47.35
21433;BME280;18592;49.708;10.900;2023-05-07T03:43:02;98626.81;;;16.98;47.35
21433;BME280;18592;49.708;10.900;2023-05-07T03:45:07;98624.34;;;16.96;47.41
21433;BME280;18592;49.708;10.900;2023-05-07T03:47:10;98626.59;;;16.94;47.32
21433;BME280;18592;49.708;10.900;2023-05-07T03:49:13;98628.81;;;16.92;47.48
21433;BME280;18592;49.708;10.900;2023-05-07T03:51:15;98633.75;;;16.90;47.55
21433;BME280;18592;49.708;10.900;2023-05-07T03:53:17;98635.47;;;16.86;47.43
21433;BME280;18592;49.708;10.900;2023-05-07T03:55:18;98639.88;;;16.87;47.56
21433;BME280;18592;49.708;10.900;2023-05-07T03:57:25;98645.66;;;16.86;47.41
21433;BME280;18592;49.708;10.900;2023-05-07T03:59:27;98647.88;;;16.84;47.56
21433;BME280;18592;49.708;10.900;2023-05-07T04:01:29;98650.94;;;16.82;47.50
21433;BME280;18592;49.708;10.900;2023-05-07T04:03:36;98658.63;;;16.80;47.58
21433;BME280;18592;49.708;10.900;2023-05-07T04:05:38;98657.28;;;16.78;47.61
21433;BME280;18592;49.708;10.900;2023-05-07T04:07:40;98657.59;;;16.76;47.62
21433;BME280;18592;49.708;10.900;2023-05-07T04:09:42;98668.34;;;16.73;47.72
21433;BME280;18592;49.708;10.900;2023-05-07T04:11:44;98672.22;;;16.72;47.65
21433;BME280;18592;49.708;10.900;2023-05-07T04:13:46;98670.56;;;16.71;47.55
21433;BME280;18592;49.708;10.900;2023-05-07T04:15:52;98677.16;;;16.70;47.46
21433;BME280;18592;49.708;10.900;2023-05-07T04:17:54;98679.69;;;16.66;47.63
21433;BME280;18592;49.708;10.900;2023-05-07T04:19:57;98673.88;;;16.68;47.73
21433;BME280;18592;49.708;10.900;2023-05-07T04:22:00;98672.25;;;16.67;47.33
21433;BME280;18592;49.708;10.900;2023-05-07T04:24:09;98676.94;;;16.66;47.39
21433;BME280;18592;49.708;10.900;2023-05-07T04:26:10;98668.16;;;16.64;47.57
21433;BME280;18592;49.708;10.900;2023-05-07T04:28:15;98674.19;;;16.66;47.65
21433;BME280;18592;49.708;10.900;2023-05-07T04:30:20;98681.91;;;16.64;47.57
21433;BME280;18592;49.708;10.900;2023-05-07T04:32:24;98682.72;;;16.65;47.50
21433;BME280;18592;49.708;10.900;2023-05-07T04:34:27;98682.72;;;16.65;47.80
21433;BME280;18592;49.708;10.900;2023-05-07T04:36:35;98675.59;;;16.64;47.73
21433;BME280;18592;49.708;10.900;2023-05-07T04:38:42;98678.03;;;16.65;47.67
21433;BME280;18592;49.708;10.900;2023-05-07T04:40:44;98675.28;;;16.65;47.70
21433;BME280;18592;49.708;10.900;2023-05-07T04:42:49;98682.72;;;16.65;47.69
21433;BME280;18592;49.708;10.900;2023-05-07T04:44:53;98675.03;;;16.67;47.89
21433;BME280;18592;49.708;10.900;2023-05-07T04:46:55;98685.19;;;16.66;48.13
21433;BME280;18592;49.708;10.900;2023-05-07T04:48:57;98681.88;;;16.69;48.09
21433;BME280;18592;49.708;10.900;2023-05-07T04:50:59;98681.31;;;16.67;48.15
21433;BME280;18592;49.708;10.900;2023-05-07T04:53:01;98682.69;;;16.70;48.03
21433;BME280;18592;49.708;10.900;2023-05-07T04:55:03;98687.09;;;16.71;48.31
21433;BME280;18592;49.708;10.900;2023-05-07T04:57:09;98689.53;;;16.72;48.23
21433;BME280;18592;49.708;10.900;2023-05-07T04:59:11;98695.03;;;16.77;48.06
21433;BME280;18592;49.708;10.900;2023-05-07T05:01:12;98684.25;;;16.81;48.05
21433;BME280;18592;49.708;10.900;2023-05-07T05:03:15;98689.19;;;16.84;47.84
21433;BME280;18592;49.708;10.900;2023-05-07T05:05:17;98693.81;;;16.88;47.87
21433;BME280;18592;49.708;10.900;2023-05-07T05:07:21;98684.47;;;16.89;47.81
21433;BME280;18592;49.708;10.900;2023-05-07T05:09:23;98684.69;;;16.93;47.96
21433;BME280;18592;49.708;10.900;2023-05-07T05:11:24;98685.50;;;16.93;47.98
21433;BME280;18592;49.708;10.900;2023-05-07T05:13:28;98689.63;;;16.96;47.97
21433;BME280;18592;49.708;10.900;2023-05-07T05:15:32;98687.13;;;16.99;47.90
21433;BME280;18592;49.708;10.900;2023-05-07T05:17:35;98692.34;;;17.01;47.91
21433;BME280;18592;49.708;10.900;2023-05-07T05:19:40;98700.31;;;17.02;48.06
21433;BME280;18592;49.708;10.900;2023-05-07T05:21:42;98697.25;;;17.04;47.93
21433;BME280;18592;49.708;10.900;2023-05-07T05:23:44;98706.88;;;17.06;47.94
21433;BME280;18592;49.708;10.900;2023-05-07T05:25:55;98705.75;;;17.12;47.98
21433;BME280;18592;49.708;10.900;2023-05-07T05:28:00;98699.09;;;17.13;47.90
21433;BME280;18592;49.708;10.900;2023-05-07T05:30:03;98704.03;;;17.17;47.90
21433;BME280;18592;49.708;10.900;2023-05-07T05:32:06;98699.03;;;17.19;48.06
21433;BME280;18592;49.708;10.900;2023-05-07T05:34:07;98694.63;;;17.23;47.99
21433;BME280;18592;49.708;10.900;2023-05-07T05:36:10;98708.91;;;17.25;47.94
21433;BME280;18592;49.708;10.900;2023-05-07T05:38:13;98711.09;;;17.28;47.94
21433;BME280;18592;49.708;10.900;2023-05-07T05:40:15;98707.75;;;17.31;47.85
21433;BME280;18592;49.708;10.900;2023-05-07T05:42:17;98708.28;;;17.33;47.89
21433;BME280;18592;49.708;10.900;2023-05-07T05:44:19;98710.44;;;17.36;47.89
21433;BME280;18592;49.708;10.900;2023-05-07T05:46:21;98708.78;;;17.40;47.69
21433;BME280;18592;49.708;10.900;2023-05-07T05:48:25;98707.88;;;17.44;47.79
21433;BME280;18592;49.708;10.900;2023-05-07T05:50:27;98706.97;;;17.54;47.53
21433;BME280;18592;49.708;10.900;2023-05-07T05:52:29;98717.69;;;17.60;47.49
21433;BME280;18592;49.708;10.900;2023-05-07T05:54:31;98711.50;;;17.68;47.63
21433;BME280;18592;49.708;10.900;2023-05-07T05:56:32;98703.72;;;17.75;47.62
21433;BME280;18592;49.708;10.900;2023-05-07T05:58:34;98703.28;;;17.87;47.62
21433;BME280;18592;49.708;10.900;2023-05-07T06:00:39;98705.91;;;17.97;47.71
21433;BME280;18592;49.708;10.900;2023-05-07T06:02:42;98697.22;;;18.09;47.72
21433;BME280;18592;49.708;10.900;2023-05-07T06:04:44;98698.72;;;18.20;47.63
21433;BME280;18592;49.708;10.900;2023-05-07T06:06:51;98698.56;;;18.30;47.56
21433;BME280;18592;49.708;10.900;2023-05-07T06:08:52;98697.91;;;18.38;47.57
21433;BME280;18592;49.708;10.900;2023-05-07T06:11:01;98688.69;;;18.48;47.34
21433;BME280;18592;49.708;10.900;2023-05-07T06:13:04;98693.00;;;18.54;47.21
21433;BME280;18592;49.708;10.900;2023-05-07T06:15:08;98691.81;;;18.60;47.17
21433;BME280;18592;49.708;10.900;2023-05-07T06:17:09;98687.84;;;18.66;47.21
21433;BME280;18592;49.708;10.900;2023-05-07T06:19:11;98696.38;;;18.69;47.42
21433;BME280;18592;49.708;10.900;2023-05-07T06:21:13;98700.66;;;18.75;47.13
21433;BME280;18592;49.708;10.900;2023-05-07T06:23:16;98702.53;;;18.80;47.07
21433;BME280;18592;49.708;10.900;2023-05-07T06:25:18;98704.41;;;18.84;47.34
21433;BME280;18592;49.708;10.900;2023-05-07T06:27:20;98707.69;;;18.86;47.23
21433;BME280;18592;49.708;10.900;2023-05-07T06:29:22;98704.84;;;18.91;47.26
21433;BME280;18592;49.708;10.900;2023-05-07T06:31:29;98708.94;;;18.94;47.18
21433;BME280;18592;49.708;10.900;2023-05-07T06:33:36;98705.88;;;18.95;47.21
21433;BME280;18592;49.708;10.900;2023-05-07T06:35:38;98713.25;;;19.00;47.27
21433;BME280;18592;49.708;10.900;2023-05-07T06:37:41;98713.47;;;19.03;47.15
21433;BME280;18592;49.708;10.900;2023-05-07T06:39:52;98715.63;;;19.07;46.88
21433;BME280;18592;49.708;10.900;2023-05-07T06:41:54;98721.06;;;19.12;47.06
21433;BME280;18592;49.708;10.900;2023-05-07T06:44:01;98712.19;;;19.15;46.96
21433;BME280;18592;49.708;10.900;2023-05-07T06:46:15;98715.97;;;19.19;46.96
21433;BME280;18592;49.708;10.900;2023-05-07T06:48:16;98719.47;;;19.24;47.12
21433;BME280;18592;49.708;10.900;2023-05-07T06:50:34;98722.44;;;19.28;46.73
21433;BME280;18592;49.708;10.900;2023-05-07T06:52:35;98718.78;;;19.32;46.94
21433;BME280;18592;49.708;10.900;2023-05-07T06:54:39;98720.34;;;19.38;46.52
21433;BME280;18592;49.708;10.900;2023-05-07T06:56:41;98724.66;;;19.44;46.78
21433;BME280;18592;49.708;10.900;2023-05-07T06:58:46;98719.88;;;19.50;46.64
21433;BME280;18592;49.708;10.900;2023-05-07T07:00:48;98715.88;;;19.56;46.59
21433;BME280;18592;49.708;10.900;2023-05-07T07:02:50;98726.53;;;19.62;46.56
21433;BME280;18592;49.708;10.900;2023-05-07T07:04:55;98726.13;;;19.69;46.57
21433;BME280;18592;49.708;10.900;2023-05-07T07:06:56;98719.38;;;19.75;46.85
21433;BME280;18592;49.708;10.900;2023-05-07T07:08:59;98719.78;;;19.82;46.80
21433;BME280;18592;49.708;10.900;2023-05-07T07:11:01;98717.75;;;19.88;46.43
21433;BME280;18592;49.708;10.900;2023-05-07T07:13:03;98715.38;;;19.95;46.57
21433;BME280;18592;49.708;10.900;2023-05-07T07:15:06;98726.84;;;20.02;46.46
21433;BME280;18592;49.708;10.900;2023-05-07T07:17:08;98722.03;;;20.07;46.68
21433;BME280;18592;49.708;10.900;2023-05-07T07:19:09;98729.91;;;20.14;46.61
21433;BME280;18592;49.708;10.900;2023-05-07T07:21:11;98725.91;;;20.20;46.67
21433;BME280;18592;49.708;10.900;2023-05-07T07:23:13;98723.56;;;20.27;46.79
21433;BME280;18592;49.708;10.900;2023-05-07T07:25:15;98724.28;;;20.33;46.43
21433;BME280;18592;49.708;10.900;2023-05-07T07:27:17;98718.31;;;20.39;46.76
21433;BME280;18592;49.708;10.900;2023-05-07T07:29:19;98718.72;;;20.46;46.89
21433;BME280;18592;49.708;10.900;2023-05-07T07:31:21;98724.66;;;20.53;46.80
21433;BME280;18592;49.708;10.900;2023-05-07T07:33:27;98718.66;;;20.60;46.57
21433;BME280;18592;49.708;10.900;2023-05-07T07:35:29;98718.75;;;20.68;46.89
21433;BME280;18592;49.708;10.900;2023-05-07T07:37:31;98722.75;;;20.76;46.82
21433;BME280;18592;49.708;10.900;2023-05-07T07:39:35;98722.81;;;20.84;46.88
21433;BME280;18592;49.708;10.900;2023-05-07T07:41:41;98720.91;;;20.94;46.78
21433;BME280;18592;49.708;10.900;2023-05-07T07:43:42;98726.53;;;21.02;46.71
21433;BME280;18592;49.708;10.900;2023-05-07T07:45:44;98724.66;;;21.11;46.62
21433;BME280;18592;49.708;10.900;2023-05-07T07:47:47;98720.00;;;21.20;46.48
21433;BME280;18592;49.708;10.900;2023-05-07T07:49:49;98720.56;;;21.31;46.99
21433;BME280;18592;49.708;10.900;2023-05-07T07:51:50;98723.38;;;21.39;46.88
21433;BME280;18592;49.708;10.900;2023-05-07T07:53:52;98727.84;;;21.49;46.70
21433;BME280;18592;49.708;10.900;2023-05-07T07:55:54;98723.97;;;21.59;46.45
21433;BME280;18592;49.708;10.900;2023-05-07T07:58:03;98722.88;;;21.68;46.52
21433;BME280;18592;49.708;10.900;2023-05-07T08:00:05;98718.19;;;21.77;46.75
21433;BME280;18592;49.708;10.900;2023-05-07T08:02:17;98727.41;;;21.86;46.52
21433;BME280;18592;49.708;10.900;2023-05-07T08:04:20;98725.50;;;21.95;46.48
21433;BME280;18592;49.708;10.900;2023-05-07T08:06:23;98727.97;;;22.05;46.52
21433;BME280;18592;49.708;10.900;2023-05-07T08:08:27;98727.34;;;22.17;46.83
21433;BME280;18592;49.708;10.900;2023-05-07T08:10:30;98722.16;;;22.33;46.92
21433;BME280;18592;49.708;10.900;2023-05-07T08:12:40;98722.81;;;22.47;47.12
21433;BME280;18592;49.708;10.900;2023-05-07T08:14:53;98727.28;;;22.65;47.40
21433;BME280;18592;49.708;10.900;2023-05-07T08:16:55;98724.53;;;22.82;47.23
21433;BME280;18592;49.708;10.900;2023-05-07T08:18:58;98728.44;;;22.98;47.27
21433;BME280;18592;49.708;10.900;2023-05-07T08:21:00;98722.88;;;23.15;47.33
21433;BME280;18592;49.708;10.900;2023-05-07T08:23:03;98721.69;;;23.33;47.62
21433;BME280;18592;49.708;10.900;2023-05-07T08:25:04;98714.16;;;23.51;47.62
21433;BME280;18592;49.708;10.900;2023-05-07T08:27:07;98718.19;;;23.71;47.46
21433;BME280;18592;49.708;10.900;2023-05-07T08:29:08;98718.13;;;23.88;47.22
21433;BME280;18592;49.708;10.900;2023-05-07T08:31:10;98712.47;;;24.05;47.22
21433;BME280;18592;49.708;10.900;2023-05-07T08:33:14;98710.28;;;24.19;46.95
21433;BME280;18592;49.708;10.900;2023-05-07T08:35:17;98713.66;;;24.33;46.69
21433;BME280;18592;49.708;10.900;2023-05-07T08:37:20;98715.72;;;24.45;46.63
21433;BME280;18592;49.708;10.900;2023-05-07T08:39:21;98712.53;;;24.55;46.45
21433;BME280;18592;49.708;10.900;2023-05-07T08:41:26;98711.31;;;24.64;46.36
21433;BME280;18592;49.708;10.900;2023-05-07T08:43:28;98711.59;;;24.72;45.71
21433;BME280;18592;49.708;10.900;2023-05-07T08:45:33;98721.41;;;24.78;45.95
21433;BME280;18592;49.708;10.900;2023-05-07T08:47:42;98722.38;;;24.82;45.61
21433;BME280;18592;49.708;10.900;2023-05-07T08:49:46;98726.56;;;24.88;45.55
21433;BME280;18592;49.708;10.900;2023-05-07T08:51:50;98723.25;;;24.94;45.19
21433;BME280;18592;49.708;10.900;2023-05-07T08:53:53;98715.47;;;25.00;45.40
21433;BME280;18592;49.708;10.900;2023-05-07T08:56:00;98714.59;;;25.08;45.02
21433;BME280;18592;49.708;10.900;2023-05-07T08:58:04;98708.94;;;25.16;45.24
21433;BME280;18592;49.708;10.900;2023-05-07T09:00:12;98707.00;;;25.29;45.46
21433;BME280;18592;49.708;10.900;2023-05-07T09:02:15;98706.22;;;25.41;45.71
21433;BME280;18592;49.708;10.900;2023-05-07T09:04:20;98715.13;;;25.55;45.64
21433;BME280;18592;49.708;10.900;2023-05-07T09:06:24;98712.00;;;25.68;45.66
21433;BME280;18592;49.708;10.900;2023-05-07T09:08:27;98721.59;;;25.79;45.01
21433;BME280;18592;49.708;10.900;2023-05-07T09:10:34;98713.22;;;25.92;45.15
21433;BME280;18592;49.708;10.900;2023-05-07T09:12:40;98721.94;;;26.02;44.93
21433;BME280;18592;49.708;10.900;2023-05-07T09:14:44;98715.56;;;26.14;44.73
21433;BME280;18592;49.708;10.900;2023-05-07T09:16:47;98717.56;;;26.25;44.71
21433;BME280;18592;49.708;10.900;2023-05-07T09:18:51;98716.41;;;26.38;44.81
21433;BME280;18592;49.708;10.900;2023-05-07T09:20:54;98714.72;;;26.49;44.90
21433;BME280;18592;49.708;10.900;2023-05-07T09:22:56;98719.03;;;26.59;44.87
21433;BME280;18592;49.708;10.900;2023-05-07T09:24:59;98715.75;;;26.69;44.59
21433;BME280;18592;49.708;10.900;2023-05-07T09:27:02;98712.03;;;26.77;44.30
21433;BME280;18592;49.708;10.900;2023-05-07T09:29:07;98713.50;;;26.87;44.05
21433;BME280;18592;49.708;10.900;2023-05-07T09:31:10;98707.66;;;26.92;43.72
21433;BME280;18592;49.708;10.900;2023-05-07T09:33:36;98720.63;;;26.96;43.32
21433;BME280;18592;49.708;10.900;2023-05-07T09:35:39;98713.50;;;26.99;43.60
21433;BME280;18592;49.708;10.900;2023-05-07T09:37:45;98709.97;;;27.02;43.09
21433;BME280;18592;49.708;10.900;2023-05-07T09:39:49;98708.91;;;27.06;43.01
21433;BME280;18592;49.708;10.900;2023-05-07T09:41:54;98714.72;;;27.14;43.04
21433;BME280;18592;49.708;10.900;2023-05-07T09:44:04;98704.53;;;27.21;42.72
21433;BME280;18592;49.708;10.900;2023-05-07T09:46:17;98711.53;;;27.27;42.85
21433;BME280;18592;49.708;10.900;2023-05-07T09:48:32;98720.81;;;27.31;42.54
21433;BME280;18592;49.708;10.900;2023-05-07T09:50:48;98713.69;;;27.34;42.23
21433;BME280;18592;49.708;10.900;2023-05-07T09:52:52;98720.13;;;27.34;42.30
21433;BME280;18592;49.708;10.900;2023-05-07T09:54:56;98711.34;;;27.36;42.17
21433;BME280;18592;49.708;10.900;2023-05-07T09:57:02;98715.78;;;27.37;42.01
21433;BME280;18592;49.708;10.900;2023-05-07T09:59:05;98711.78;;;27.38;41.82
21433;BME280;18592;49.708;10.900;2023-05-07T10:01:10;98712.31;;;27.40;41.40
21433;BME280;18592;49.708;10.900;2023-05-07T10:03:15;98709.13;;;27.41;41.90
21433;BME280;18592;49.708;10.900;2023-05-07T10:05:28;98711.69;;;27.46;41.98
21433;BME280;18592;49.708;10.900;2023-05-07T10:07:32;98710.97;;;27.49;41.88
21433;BME280;18592;49.708;10.900;2023-05-07T10:09:40;98700.66;;;27.53;42.00
21433;BME280;18592;49.708;10.900;2023-05-07T10:11:49;98698.41;;;27.59;41.87
21433;BME280;18592;49.708;10.900;2023-05-07T10:13:52;98696.16;;;27.64;41.81
21433;BME280;18592;49.708;10.900;2023-05-07T10:15:55;98698.31;;;27.71;41.86
21433;BME280;18592;49.708;10.900;2023-05-07T10:17:59;98709.38;;;27.80;42.32
21433;BME280;18592;49.708;10.900;2023-05-07T10:20:02;98706.38;;;27.88;42.41
21433;BME280;18592;49.708;10.900;2023-05-07T10:22:06;98704.31;;;28.01;42.42
21433;BME280;18592;49.708;10.900;2023-05-07T10:24:31;98707.50;;;28.15;42.44
21433;BME280;18592;49.708;10.900;2023-05-07T10:26:45;98697.88;;;28.31;42.57
21433;BME280;18592;49.708;10.900;2023-05-07T10:29:32;98688.28;;;28.48;42.86
21433;BME280;18592;49.708;10.900;2023-05-07T10:33:50;98691.50;;;28.85;42.77
21433;BME280;18592;49.708;10.900;2023-05-07T10:35:59;98692.28;;;29.01;42.60
21433;BME280;18592;49.708;10.900;2023-05-07T10:38:04;98686.13;;;29.15;42.08
21433;BME280;18592;49.708;10.900;2023-05-07T10:40:09;98687.56;;;29.24;41.95
21433;BME280;18592;49.708;10.900;2023-05-07T10:42:13;98690.88;;;29.30;41.43
21433;BME280;18592;49.708;10.900;2023-05-07T10:44:28;98690.56;;;29.35;41.27
21433;BME280;18592;49.708;10.900;2023-05-07T10:46:34;98696.25;;;29.38;41.06
21433;BME280;18592;49.708;10.900;2023-05-07T10:51:30;98687.44;;;29.40;40.59
21433;BME280;18592;49.708;10.900;2023-05-07T10:54:16;98689.00;;;29.37;39.95